createdAt,value
2023-06-11T00:00:40.774Z,63.85
2023-06-11T00:03:07.893Z,63.94
2023-06-11T00:05:35.200Z,64.28
2023-06-11T00:08:02.194Z,65.24
2023-06-11T00:10:29.193Z,64.79
2023-06-11T00:12:55.802Z,65.41
2023-06-11T00:15:22.538Z,65.36
2023-06-11T00:17:49.641Z,65.93
2023-06-11T00:20:17.239Z,66.05
2023-06-11T00:22:43.964Z,65.73
2023-06-11T00:25:11.845Z,66.26
2023-06-11T00:27:38.651Z,66.26
2023-06-11T00:30:07.336Z,66.71
2023-06-11T00:32:36.062Z,66.88
2023-06-11T00:35:07.748Z,67.38
2023-06-11T00:37:35.548Z,68.77
2023-06-11T00:40:02.720Z,70.08
2023-06-11T00:42:29.401Z,69.72
2023-06-11T00:44:55.961Z,70.08
2023-06-11T00:47:22.776Z,70.24
2023-06-11T00:49:49.344Z,69.88
2023-06-11T00:52:16.989Z,70.44
2023-06-11T00:54:43.593Z,70.70
2023-06-11T00:57:11.073Z,70.58
2023-06-11T00:59:39.866Z,70.28
2023-06-11T01:02:22.480Z,70.29
2023-06-11T01:04:58.450Z,71.02
2023-06-11T01:07:33.560Z,70.33
2023-06-11T01:10:00.501Z,70.91
2023-06-11T01:12:27.126Z,71.66
2023-06-11T01:14:53.894Z,72.47
2023-06-11T01:17:36.754Z,73.11
2023-06-11T01:20:13.138Z,74.32
2023-06-11T01:22:57.841Z,73.75
2023-06-11T01:26:01.691Z,73.45
2023-06-11T01:28:34.205Z,73.78
2023-06-11T01:31:05.942Z,73.92
2023-06-11T01:33:36.815Z,75.36
2023-06-11T01:36:03.616Z,76.24
2023-06-11T01:38:35.861Z,76.31
2023-06-11T01:41:02.915Z,76.24
2023-06-11T01:43:29.704Z,76.28
2023-06-11T01:45:57.255Z,75.87
2023-06-11T01:48:23.772Z,75.45
2023-06-11T01:50:50.489Z,75.37
2023-06-11T01:53:17.734Z,75.44
2023-06-11T01:55:44.363Z,75.63
2023-06-11T01:58:12.581Z,76.38
2023-06-11T02:00:39.108Z,76.25
2023-06-11T02:03:06.661Z,76.53
2023-06-11T02:05:33.422Z,76.88
2023-06-11T02:07:59.907Z,77.65
2023-06-11T02:10:26.492Z,77.19
2023-06-11T02:12:53.055Z,77.58
2023-06-11T02:15:20.716Z,79.04
2023-06-11T02:17:47.227Z,79.13
2023-06-11T02:20:16.448Z,78.56
2023-06-11T02:22:43.585Z,78.90
2023-06-11T02:25:10.392Z,79.12
2023-06-11T02:27:37.279Z,79.57
2023-06-11T02:30:04.734Z,79.58
2023-06-11T02:32:31.563Z,79.82
2023-06-11T02:34:58.103Z,79.45
2023-06-11T02:37:24.593Z,79.04
2023-06-11T02:39:51.138Z,79.01
2023-06-11T02:42:17.674Z,80.25
2023-06-11T02:44:44.195Z,81.46
2023-06-11T02:47:10.751Z,82.32
2023-06-11T02:49:37.256Z,82.43
2023-06-11T02:52:03.922Z,82.58
2023-06-11T02:54:30.449Z,83.32
2023-06-11T02:56:56.964Z,82.50
2023-06-11T02:59:23.493Z,82.87
2023-06-11T03:01:50.515Z,83.19
2023-06-11T03:04:17.210Z,83.49
2023-06-11T03:06:43.824Z,83.65
2023-06-11T03:09:10.393Z,83.70
2023-06-11T03:11:37.032Z,83.78
2023-06-11T03:14:03.553Z,83.57
2023-06-11T03:16:30.256Z,83.54
2023-06-11T03:18:56.924Z,82.99
2023-06-11T03:21:23.438Z,82.41
2023-06-11T03:23:50.022Z,82.51
2023-06-11T03:26:16.807Z,83.01
2023-06-11T03:28:43.312Z,82.72
2023-06-11T03:31:09.900Z,82.30
2023-06-11T03:33:36.660Z,82.66
2023-06-11T03:36:03.242Z,82.56
2023-06-11T03:38:29.803Z,82.68
2023-06-11T03:40:56.476Z,82.66
2023-06-11T03:43:22.973Z,82.52
2023-06-11T03:45:49.472Z,82.87
2023-06-11T03:48:15.965Z,82.83
2023-06-11T03:50:42.478Z,82.31
2023-06-11T03:53:09.034Z,82.51
2023-06-11T03:55:35.648Z,82.59
2023-06-11T03:58:02.258Z,82.42
2023-06-11T04:00:32.009Z,82.38
2023-06-11T04:03:00.329Z,82.39
2023-06-11T04:05:27.129Z,82.38
2023-06-11T04:07:53.716Z,82.09
2023-06-11T04:10:20.703Z,82.72
2023-06-11T04:12:47.842Z,83.36
2023-06-11T04:15:14.346Z,83.79
2023-06-11T04:17:40.892Z,84.30
2023-06-11T04:20:08.402Z,84.26
2023-06-11T04:22:34.938Z,84.37
2023-06-11T04:25:01.572Z,85.00
2023-06-11T04:27:29.272Z,85.40
2023-06-11T04:29:57.380Z,85.74
2023-06-11T04:32:27.908Z,85.60
2023-06-11T04:34:58.019Z,85.87
2023-06-11T04:37:25.343Z,85.76
2023-06-11T04:39:51.995Z,85.75
2023-06-11T04:42:18.596Z,84.94
2023-06-11T04:44:48.939Z,84.05
2023-06-11T04:47:15.952Z,83.69
2023-06-11T04:49:45.232Z,84.18
2023-06-11T04:52:12.382Z,84.83
2023-06-11T04:54:42.623Z,84.77
2023-06-11T04:57:09.177Z,84.05
2023-06-11T04:59:35.845Z,83.88
2023-06-11T05:02:02.691Z,83.86
2023-06-11T05:04:29.258Z,83.54
2023-06-11T05:06:55.980Z,83.98
2023-06-11T05:09:22.477Z,83.33
2023-06-11T05:11:49.061Z,82.47
2023-06-11T05:14:15.740Z,81.97
2023-06-11T05:16:42.567Z,79.84
2023-06-11T05:19:09.220Z,78.17
2023-06-11T05:21:36.009Z,78.33
2023-06-11T05:24:08.852Z,78.46
2023-06-11T05:26:37.045Z,77.72
2023-06-11T05:29:04.693Z,77.48
2023-06-11T05:31:32.160Z,76.63
2023-06-11T05:33:58.931Z,76.42
2023-06-11T05:36:25.552Z,75.92
2023-06-11T05:38:52.883Z,75.39
2023-06-11T05:41:20.517Z,75.11
2023-06-11T05:43:47.895Z,75.52
2023-06-11T05:46:15.475Z,74.87
2023-06-11T05:48:43.358Z,74.61
2023-06-11T05:51:11.006Z,74.80
2023-06-11T05:53:37.962Z,73.78
2023-06-11T05:56:06.149Z,74.26
2023-06-11T05:58:33.778Z,74.47
2023-06-11T06:01:04.998Z,72.94
2023-06-11T06:03:32.799Z,73.25
2023-06-11T06:06:00.945Z,71.72
2023-06-11T06:08:28.281Z,71.44
2023-06-11T06:10:58.064Z,71.12
2023-06-11T06:13:25.655Z,70.63
2023-06-11T06:15:53.861Z,70.77
2023-06-11T06:18:21.809Z,70.94
2023-06-11T06:20:48.536Z,70.65
2023-06-11T06:23:15.072Z,70.45
2023-06-11T06:25:42.375Z,70.37
2023-06-11T06:28:09.025Z,69.66
2023-06-11T06:30:36.233Z,68.90
2023-06-11T06:33:02.922Z,69.37
2023-06-11T06:35:33.486Z,69.01
2023-06-11T06:38:01.310Z,67.77
2023-06-11T06:40:28.062Z,68.07
2023-06-11T06:42:54.832Z,68.31
2023-06-11T06:45:21.384Z,67.92
2023-06-11T06:47:48.008Z,68.12
2023-06-11T06:50:14.938Z,67.47
2023-06-11T06:52:41.695Z,68.33
2023-06-11T06:55:08.593Z,67.44
2023-06-11T06:57:35.291Z,66.32
2023-06-11T07:00:02.108Z,66.36
2023-06-11T07:02:28.755Z,65.29
2023-06-11T07:04:55.426Z,63.99
2023-06-11T07:07:22.015Z,64.77
2023-06-11T07:09:48.561Z,64.67
2023-06-11T07:12:15.055Z,63.57
2023-06-11T07:14:41.575Z,63.03
2023-06-11T07:17:08.093Z,63.46
2023-06-11T07:19:34.749Z,61.82
2023-06-11T07:22:01.919Z,61.79
2023-06-11T07:24:28.400Z,62.91
2023-06-11T07:26:54.913Z,61.56
2023-06-11T07:29:21.499Z,60.56
2023-06-11T07:31:48.160Z,59.82
2023-06-11T07:34:16.349Z,58.99
2023-06-11T07:36:43.000Z,58.80
2023-06-11T07:39:09.569Z,57.85
2023-06-11T07:41:36.549Z,58.92
2023-06-11T07:44:03.088Z,58.64
2023-06-11T07:46:29.868Z,57.86
2023-06-11T07:48:56.521Z,57.78
2023-06-11T07:51:24.852Z,56.08
2023-06-11T07:53:51.800Z,57.33
2023-06-11T07:56:18.466Z,56.99
2023-06-11T07:58:45.013Z,55.54
2023-06-11T08:01:11.514Z,56.32
2023-06-11T08:03:38.145Z,55.79
2023-06-11T08:06:04.750Z,55.73
2023-06-11T08:08:31.402Z,57.28
2023-06-11T08:10:57.909Z,56.01
2023-06-11T08:13:24.633Z,56.84
2023-06-11T08:15:51.205Z,56.50
2023-06-11T08:18:19.836Z,55.92
2023-06-11T08:20:47.466Z,56.53
2023-06-11T08:23:14.299Z,57.21
2023-06-11T08:25:40.835Z,56.27
2023-06-11T08:28:07.537Z,54.52
2023-06-11T08:30:34.044Z,56.62
2023-06-11T08:33:00.881Z,56.58
2023-06-11T08:35:27.507Z,55.52
2023-06-11T08:37:54.086Z,55.66
2023-06-11T08:40:22.691Z,56.13
2023-06-11T08:42:50.540Z,54.83
2023-06-11T08:45:17.359Z,56.20
2023-06-11T08:47:51.290Z,55.05
2023-06-11T08:50:23.910Z,55.60
2023-06-11T08:52:54.308Z,54.81
2023-06-11T08:55:21.067Z,54.92
2023-06-11T08:57:48.017Z,53.09
2023-06-11T09:00:15.456Z,54.60
2023-06-11T09:02:42.375Z,53.47
2023-06-11T09:05:10.087Z,53.85
2023-06-11T09:07:37.707Z,53.12
2023-06-11T09:10:12.135Z,54.45
2023-06-11T09:12:39.112Z,53.49
2023-06-11T09:15:06.727Z,52.88
2023-06-11T09:17:43.914Z,52.84
2023-06-11T09:20:13.857Z,53.38
2023-06-11T09:22:43.117Z,52.40
2023-06-11T09:25:18.182Z,52.40
2023-06-11T09:27:46.742Z,51.16
2023-06-11T09:30:14.802Z,52.10
2023-06-11T09:32:42.432Z,52.76
2023-06-11T09:35:10.792Z,51.31
2023-06-11T09:37:48.450Z,50.67
2023-06-11T09:40:20.266Z,51.32
2023-06-11T09:42:48.506Z,51.20
2023-06-11T09:45:17.474Z,48.35
2023-06-11T09:47:46.346Z,49.62
2023-06-11T09:50:15.324Z,47.44
2023-06-11T09:52:43.012Z,49.79
2023-06-11T09:55:10.794Z,48.74
2023-06-11T09:57:41.813Z,47.38
2023-06-11T10:00:12.314Z,48.24
2023-06-11T10:02:43.398Z,48.15
2023-06-11T10:05:11.783Z,46.72
2023-06-11T10:08:00.251Z,47.28
2023-06-11T10:10:27.640Z,46.70
2023-06-11T10:12:54.948Z,47.66
2023-06-11T10:15:25.666Z,44.12
2023-06-11T10:17:54.210Z,43.39
2023-06-11T10:20:33.073Z,47.00
2023-06-11T10:23:13.223Z,45.83
2023-06-11T10:25:41.442Z,44.99
2023-06-11T10:28:09.768Z,45.08
2023-06-11T10:30:36.685Z,44.99
2023-06-11T10:33:03.428Z,44.38
2023-06-11T10:35:37.703Z,45.29
2023-06-11T10:38:12.090Z,45.13
2023-06-11T10:40:39.609Z,43.83
2023-06-11T10:43:21.814Z,43.41
2023-06-11T10:46:02.302Z,43.92
2023-06-11T10:48:32.337Z,42.81
2023-06-11T10:51:04.064Z,42.10
2023-06-11T10:53:38.784Z,42.39
2023-06-11T10:56:05.865Z,41.63
2023-06-11T10:58:34.221Z,40.80
2023-06-11T11:01:01.196Z,39.17
2023-06-11T11:03:31.668Z,41.45
2023-06-11T11:05:58.603Z,41.18
2023-06-11T11:08:26.140Z,39.93
2023-06-11T11:10:58.106Z,40.84
2023-06-11T11:13:24.899Z,40.72
2023-06-11T11:15:52.301Z,41.04
2023-06-11T11:18:19.035Z,40.04
2023-06-11T11:20:48.457Z,39.98
2023-06-11T11:23:15.008Z,39.18
2023-06-11T11:25:43.252Z,37.36
2023-06-11T11:28:12.661Z,35.79
2023-06-11T11:30:40.698Z,36.97
2023-06-11T11:33:08.165Z,37.72
2023-06-11T11:35:57.394Z,37.87
2023-06-11T11:38:23.940Z,37.63
2023-06-11T11:40:57.792Z,36.96
2023-06-11T11:43:24.748Z,35.96
2023-06-11T11:45:51.518Z,35.68
2023-06-11T11:48:18.430Z,35.47
2023-06-11T11:50:46.675Z,35.44
2023-06-11T11:53:19.440Z,36.39
2023-06-11T11:56:04.218Z,34.91
2023-06-11T11:58:37.981Z,36.32
2023-06-11T12:01:05.861Z,35.62
2023-06-11T12:03:33.113Z,34.90
2023-06-11T12:06:02.569Z,34.88
2023-06-11T12:08:31.086Z,36.31
2023-06-11T12:10:58.564Z,35.71
2023-06-11T12:13:25.658Z,35.17
2023-06-11T12:15:52.862Z,36.47
2023-06-11T12:18:19.736Z,33.71
2023-06-11T12:20:46.586Z,36.38
2023-06-11T12:23:14.087Z,34.94
2023-06-11T12:25:40.911Z,35.42
2023-06-11T12:28:07.504Z,34.52
2023-06-11T12:30:36.016Z,34.84
2023-06-11T12:33:02.840Z,33.38
2023-06-11T12:35:30.931Z,33.34
2023-06-11T12:37:57.679Z,33.37
2023-06-11T12:40:24.752Z,32.59
2023-06-11T12:42:57.781Z,32.54
2023-06-11T12:45:26.682Z,31.79
2023-06-11T12:47:53.728Z,32.29
2023-06-11T12:50:23.115Z,32.18
2023-06-11T12:52:52.620Z,33.09
2023-06-11T12:55:20.613Z,30.84
2023-06-11T12:57:47.649Z,31.40
2023-06-11T13:00:16.202Z,29.83
2023-06-11T13:02:43.210Z,30.71
2023-06-11T13:05:09.936Z,30.89
2023-06-11T13:07:36.728Z,29.38
2023-06-11T13:10:05.794Z,28.69
2023-06-11T13:12:33.193Z,30.05
2023-06-11T13:14:59.934Z,30.99
2023-06-11T13:17:27.079Z,30.58
2023-06-11T13:19:55.776Z,31.56
2023-06-11T13:22:22.897Z,31.29
2023-06-11T13:24:49.726Z,30.67
2023-06-11T13:27:16.342Z,30.72
2023-06-11T13:29:42.920Z,29.27
2023-06-11T13:32:12.699Z,31.04
2023-06-11T13:34:39.384Z,30.38
2023-06-11T13:37:06.198Z,30.89
2023-06-11T13:39:34.251Z,30.15
2023-06-11T13:42:01.278Z,31.51
2023-06-11T13:44:27.841Z,30.77
2023-06-11T13:46:54.498Z,31.13
2023-06-11T13:49:21.625Z,29.81
2023-06-11T13:51:48.376Z,29.73
2023-06-11T13:54:14.967Z,30.53
2023-06-11T13:56:41.884Z,28.91
2023-06-11T13:59:08.424Z,29.93
2023-06-11T14:01:35.066Z,27.98
2023-06-11T14:04:01.630Z,27.65
2023-06-11T14:06:30.046Z,27.32
2023-06-11T14:08:58.511Z,26.15
2023-06-11T14:11:27.002Z,25.50
2023-06-11T14:13:53.547Z,26.22
2023-06-11T14:16:20.318Z,26.34
2023-06-11T14:18:46.973Z,26.00
2023-06-11T14:21:13.540Z,25.81
2023-06-11T14:23:40.107Z,25.97
2023-06-11T14:26:06.736Z,25.26
2023-06-11T14:28:33.426Z,26.06
2023-06-11T14:31:00.832Z,25.27
2023-06-11T14:33:27.494Z,25.73
2023-06-11T14:35:54.049Z,24.90
2023-06-11T14:38:20.593Z,24.62
2023-06-11T14:40:47.550Z,24.18
2023-06-11T14:43:14.365Z,23.70
2023-06-11T14:45:41.743Z,24.47
2023-06-11T14:48:08.713Z,24.89
2023-06-11T14:50:35.531Z,24.69
2023-06-11T14:53:02.058Z,24.10
2023-06-11T14:55:28.561Z,22.35
2023-06-11T14:57:55.135Z,22.22
2023-06-11T15:00:21.678Z,22.53
2023-06-11T15:02:48.170Z,22.63
2023-06-11T15:05:14.729Z,22.46
2023-06-11T15:07:41.233Z,22.86
2023-06-11T15:10:09.560Z,21.60
2023-06-11T15:12:36.173Z,21.21
2023-06-11T15:15:02.834Z,20.27
2023-06-11T15:17:36.521Z,21.90
2023-06-11T15:20:06.964Z,21.05
2023-06-11T15:22:37.894Z,19.33
2023-06-11T15:25:04.760Z,19.63
2023-06-11T15:27:31.309Z,21.10
2023-06-11T15:29:57.820Z,19.71
2023-06-11T15:32:24.402Z,19.42
2023-06-11T15:34:51.022Z,20.26
2023-06-11T15:37:18.046Z,19.38
2023-06-11T15:39:51.913Z,19.24
2023-06-11T15:42:19.136Z,19.52
2023-06-11T15:44:46.286Z,19.54
2023-06-11T15:47:12.861Z,19.84
2023-06-11T15:49:39.398Z,19.81
2023-06-11T15:52:06.141Z,20.51
2023-06-11T15:54:32.739Z,21.52
2023-06-11T15:57:01.685Z,22.53
2023-06-11T15:59:28.401Z,23.76
2023-06-11T16:01:55.044Z,24.33
2023-06-11T16:04:24.229Z,24.53
2023-06-11T16:06:50.968Z,25.12
2023-06-11T16:09:17.678Z,25.60
2023-06-11T16:11:44.201Z,25.00
2023-06-11T16:14:10.816Z,26.82
2023-06-11T16:16:37.495Z,26.68
2023-06-11T16:19:04.155Z,26.03
2023-06-11T16:21:30.925Z,25.49
2023-06-11T16:23:57.513Z,27.15
2023-06-11T16:26:25.717Z,27.58
2023-06-11T16:28:53.649Z,28.18
2023-06-11T16:31:20.246Z,26.91
2023-06-11T16:33:57.275Z,27.26
2023-06-11T16:36:25.623Z,29.10
2023-06-11T16:38:52.225Z,29.34
2023-06-11T16:41:18.815Z,29.80
2023-06-11T16:43:45.379Z,29.91
2023-06-11T16:46:11.949Z,28.38
2023-06-11T16:48:38.537Z,28.28
2023-06-11T16:51:05.053Z,28.25
2023-06-11T16:53:31.562Z,29.68
2023-06-11T16:55:58.117Z,29.61
2023-06-11T16:58:25.225Z,29.54
2023-06-11T17:00:52.261Z,30.15
2023-06-11T17:03:19.030Z,30.57
2023-06-11T17:05:45.772Z,31.63
2023-06-11T17:08:14.052Z,32.70
2023-06-11T17:10:41.007Z,31.12
2023-06-11T17:13:07.671Z,33.96
2023-06-11T17:15:34.197Z,32.32
2023-06-11T17:18:00.793Z,32.17
2023-06-11T17:20:27.616Z,32.23
2023-06-11T17:22:54.342Z,32.89
2023-06-11T17:25:24.621Z,33.02
2023-06-11T17:27:51.438Z,33.35
2023-06-11T17:30:18.143Z,34.51
2023-06-11T17:32:45.078Z,32.69
2023-06-11T17:35:11.862Z,35.20
2023-06-11T17:37:38.758Z,34.94
2023-06-11T17:40:06.811Z,34.65
2023-06-11T17:42:33.517Z,34.87
2023-06-11T17:45:00.043Z,36.33
2023-06-11T17:47:26.699Z,34.49
2023-06-11T17:49:53.316Z,35.22
2023-06-11T17:52:19.941Z,35.84
2023-06-11T17:54:47.395Z,35.99
2023-06-11T17:57:14.018Z,35.96
2023-06-11T17:59:40.521Z,36.87
2023-06-11T18:02:07.081Z,36.79
2023-06-11T18:04:33.667Z,36.69
2023-06-11T18:07:00.338Z,36.73
2023-06-11T18:09:26.866Z,36.73
2023-06-11T18:11:53.520Z,36.59
2023-06-11T18:14:20.060Z,36.98
2023-06-11T18:16:46.740Z,37.79
2023-06-11T18:19:13.421Z,36.97
2023-06-11T18:21:40.136Z,37.47
2023-06-11T18:24:06.810Z,37.56
2023-06-11T18:26:36.503Z,39.01
2023-06-11T18:29:03.124Z,37.80
2023-06-11T18:31:29.752Z,37.80
2023-06-11T18:33:56.358Z,39.11
2023-06-11T18:36:22.972Z,39.33
2023-06-11T18:38:49.698Z,37.91
2023-06-11T18:41:18.777Z,39.13
2023-06-11T18:43:45.478Z,37.59
2023-06-11T18:46:12.020Z,40.31
2023-06-11T18:48:38.570Z,38.65
2023-06-11T18:51:05.071Z,37.68
2023-06-11T18:53:31.633Z,38.72
2023-06-11T18:55:58.151Z,39.01
2023-06-11T18:58:24.682Z,39.98
2023-06-11T19:00:51.304Z,39.59
2023-06-11T19:03:18.001Z,39.49
2023-06-11T19:05:44.905Z,39.87
2023-06-11T19:08:11.440Z,39.82
2023-06-11T19:10:38.056Z,40.82
2023-06-11T19:13:05.493Z,40.13
2023-06-11T19:15:32.066Z,39.71
2023-06-11T19:17:58.985Z,39.61
2023-06-11T19:20:28.214Z,41.02
2023-06-11T19:22:55.835Z,40.54
2023-06-11T19:25:22.563Z,40.72
2023-06-11T19:27:49.184Z,40.97
2023-06-11T19:30:16.017Z,41.50
2023-06-11T19:32:42.925Z,40.51
2023-06-11T19:35:09.808Z,40.21
2023-06-11T19:37:36.329Z,42.48
2023-06-11T19:40:03.551Z,42.74
2023-06-11T19:42:30.070Z,40.91
2023-06-11T19:44:56.822Z,40.73
2023-06-11T19:47:23.564Z,42.89
2023-06-11T19:49:50.374Z,44.47
2023-06-11T19:52:16.920Z,43.59
2023-06-11T19:54:51.443Z,43.56
2023-06-11T19:57:20.117Z,43.79
2023-06-11T19:59:48.018Z,42.93
2023-06-11T20:02:15.000Z,43.48
2023-06-11T20:04:41.719Z,45.16
2023-06-11T20:07:08.662Z,43.80
2023-06-11T20:09:36.268Z,45.07
2023-06-11T20:12:09.258Z,42.38
2023-06-11T20:14:37.061Z,42.55
2023-06-11T20:17:04.880Z,44.70
2023-06-11T20:19:31.473Z,44.22
2023-06-11T20:21:59.829Z,45.91
2023-06-11T20:24:27.274Z,49.05
2023-06-11T20:26:54.821Z,46.42
2023-06-11T20:29:22.940Z,47.52
2023-06-11T20:31:49.902Z,45.63
2023-06-11T20:34:17.354Z,45.19
2023-06-11T20:36:44.110Z,46.66
2023-06-11T20:39:10.806Z,45.10
2023-06-11T20:41:37.344Z,49.00
2023-06-11T20:44:03.991Z,42.55
2023-06-11T20:46:31.050Z,43.52
2023-06-11T20:48:58.321Z,45.83
2023-06-11T20:51:25.027Z,43.76
2023-06-11T20:53:52.207Z,46.90
2023-06-11T20:56:20.202Z,45.15
2023-06-11T20:58:47.280Z,46.75
2023-06-11T21:01:14.298Z,47.49
2023-06-11T21:03:40.933Z,43.99
2023-06-11T21:06:07.739Z,47.39
2023-06-11T21:08:34.277Z,44.01
2023-06-11T21:11:01.106Z,44.02
2023-06-11T21:13:27.756Z,47.04
2023-06-11T21:15:54.439Z,48.77
2023-06-11T21:18:21.302Z,50.33
2023-06-11T21:20:47.968Z,48.27
2023-06-11T21:23:14.757Z,47.50
2023-06-11T21:25:41.630Z,49.45
2023-06-11T21:28:08.223Z,47.20
2023-06-11T21:30:35.825Z,46.12
2023-06-11T21:33:02.553Z,43.88
2023-06-11T21:35:29.163Z,46.95
2023-06-11T21:37:55.707Z,45.40
2023-06-11T21:40:22.455Z,47.65
2023-06-11T21:42:48.996Z,44.87
2023-06-11T21:45:15.988Z,43.77
2023-06-11T21:47:42.613Z,44.29
2023-06-11T21:50:09.865Z,45.50
2023-06-11T21:52:38.887Z,44.33
2023-06-11T21:55:07.528Z,43.90
2023-06-11T21:57:34.738Z,43.55
2023-06-11T22:00:06.075Z,43.51
2023-06-11T22:02:32.624Z,44.25
2023-06-11T22:05:01.878Z,42.19
2023-06-11T22:07:28.655Z,42.78
2023-06-11T22:09:55.400Z,44.75
2023-06-11T22:12:24.420Z,44.00
2023-06-11T22:14:51.121Z,43.95
2023-06-11T22:17:17.777Z,43.20
2023-06-11T22:19:45.950Z,42.26
2023-06-11T22:22:12.608Z,40.95
2023-06-11T22:24:39.490Z,40.97
2023-06-11T22:27:09.490Z,42.07
2023-06-11T22:29:36.100Z,41.62
2023-06-11T22:32:02.856Z,41.18
2023-06-11T22:34:29.462Z,40.84
2023-06-11T22:36:56.745Z,42.11
2023-06-11T22:39:23.235Z,42.08
2023-06-11T22:41:49.759Z,42.69
2023-06-11T22:44:17.586Z,42.71
2023-06-11T22:46:44.268Z,42.13
2023-06-11T22:49:12.568Z,46.07
2023-06-11T22:51:39.248Z,45.70
2023-06-11T22:54:12.640Z,47.39
2023-06-11T22:56:39.370Z,48.08
2023-06-11T22:59:07.109Z,47.97
2023-06-11T23:01:37.042Z,46.15
2023-06-11T23:04:03.947Z,47.15
2023-06-11T23:06:30.624Z,46.62
2023-06-11T23:08:57.717Z,47.08
2023-06-11T23:11:24.394Z,46.37
2023-06-11T23:13:50.911Z,46.89
2023-06-11T23:16:18.350Z,46.13
2023-06-11T23:18:44.897Z,48.52
2023-06-11T23:21:12.559Z,47.10
2023-06-11T23:23:42.672Z,44.05
2023-06-11T23:26:10.599Z,45.90
2023-06-11T23:28:38.034Z,48.94
2023-06-11T23:31:04.814Z,47.20
2023-06-11T23:33:31.674Z,46.12
2023-06-11T23:35:59.882Z,46.14
2023-06-11T23:38:26.989Z,47.12
2023-06-11T23:40:53.525Z,45.99
2023-06-11T23:43:20.066Z,45.37
2023-06-11T23:45:46.602Z,47.83
2023-06-11T23:48:13.232Z,46.42
2023-06-11T23:50:42.772Z,48.11
2023-06-11T23:53:12.204Z,47.34
2023-06-11T23:55:38.763Z,48.28
2023-06-11T23:58:20.117Z,46.79
